sensor_id;sensor_type;location;lat;lon;timestamp;pressure;altitude;pressure_sealevel;temperature;humidity
64862;BME280;62652;42.274;-71.436;2023-03-20T00:00:01;100910.0;;;0.38888888888889045;unknown
64862;BME280;62652;42.274;-71.436;2023-03-20T00:01:00;100920.0;;;0.2777777777777778;unknown
64862;BME280;62652;42.274;-71.436;2023-03-20T00:02:01;100920.0;;;0.2777777777777778;unknown
64862;BME280;62652;42.274;-71.436;2023-03-20T00:03:01;100920.0;;;0.2777777777777778;unknown
64862;BME280;62652;42.274;-71.436;2023-03-20T00:04:01;100930.0;;;0.2777777777777778;unknown
64862;BME280;62652;42.274;-71.436;2023-03-20T00:05:01;100920.0;;;0.22222222222222143;unknown
64862;BME280;62652;42.274;-71.436;2023-03-20T00:06:00;100930.0;;;0.22222222222222143;unknown
64862;BME280;62652;42.274;-71.436;2023-03-20T00:07:00;100940.0;;;0.11111111111111269;unknown
64862;BME280;62652;42.274;-71.436;2023-03-20T00:08:01;100930.0;;;0.11111111111111269;unknown
64862;BME280;62652;42.274;-71.436;2023-03-20T00:09:01;100930.0;;;0.11111111111111269;unknown
64862;BME280;62652;42.274;-71.436;2023-03-20T00:10:00;100940.0;;;0.0;unknown
64862;BME280;62652;42.274;-71.436;2023-03-20T00:11:00;100940.0;;;0.0;unknown
64862;BME280;62652;42.274;-71.436;2023-03-20T00:12:00;100940.0;;;0.0;unknown
64862;BME280;62652;42.274;-71.436;2023-03-20T00:13:01;100940.0;;;-0.11111111111111072;unknown
64862;BME280;62652;42.274;-71.436;2023-03-20T00:14:02;100940.0;;;-0.11111111111111072;unknown
64862;BME280;62652;42.274;-71.436;2023-03-20T00:15:06;100940.0;;;-0.11111111111111072;unknown
64862;BME280;62652;42.274;-71.436;2023-03-20T00:16:01;100950.0;;;-0.11111111111111072;unknown
64862;BME280;62652;42.274;-71.436;2023-03-20T00:17:04;100940.0;;;-0.22222222222222143;unknown
64862;BME280;62652;42.274;-71.436;2023-03-20T00:18:01;100950.0;;;-0.22222222222222143;unknown
64862;BME280;62652;42.274;-71.436;2023-03-20T00:19:02;100950.0;;;-0.22222222222222143;unknown
64862;BME280;62652;42.274;-71.436;2023-03-20T00:20:00;100950.0;;;-0.11111111111111072;unknown
64862;BME280;62652;42.274;-71.436;2023-03-20T00:21:00;100950.0;;;0.0;unknown
64862;BME280;62652;42.274;-71.436;2023-03-20T00:22:01;100950.0;;;0.0;unknown
64862;BME280;62652;42.274;-71.436;2023-03-20T00:23:00;100950.0;;;0.0;unknown
64862;BME280;62652;42.274;-71.436;2023-03-20T00:24:01;100950.0;;;0.0;unknown
64862;BME280;62652;42.274;-71.436;2023-03-20T00:25:00;100950.0;;;0.11111111111111269;unknown
64862;BME280;62652;42.274;-71.436;2023-03-20T00:26:01;100960.0;;;0.11111111111111269;unknown
64862;BME280;62652;42.274;-71.436;2023-03-20T00:27:01;100950.0;;;0.22222222222222143;unknown
64862;BME280;62652;42.274;-71.436;2023-03-20T00:28:02;100960.0;;;0.2777777777777778;unknown
64862;BME280;62652;42.274;-71.436;2023-03-20T00:29:02;100950.0;;;0.2777777777777778;unknown
64862;BME280;62652;42.274;-71.436;2023-03-20T00:30:00;100960.0;;;0.2777777777777778;unknown
64862;BME280;62652;42.274;-71.436;2023-03-20T00:31:01;100970.0;;;0.2777777777777778;unknown
64862;BME280;62652;42.274;-71.436;2023-03-20T00:32:01;100970.0;;;0.2777777777777778;unknown
64862;BME280;62652;42.274;-71.436;2023-03-20T00:33:00;100970.0;;;0.22222222222222143;unknown
64862;BME280;62652;42.274;-71.436;2023-03-20T00:34:03;100980.0;;;0.11111111111111269;unknown
64862;BME280;62652;42.274;-71.436;2023-03-20T00:35:06;100970.0;;;0.0;unknown
64862;BME280;62652;42.274;-71.436;2023-03-20T00:36:01;100970.0;;;0.0;unknown
64862;BME280;62652;42.274;-71.436;2023-03-20T00:37:00;100970.0;;;-0.11111111111111072;unknown
64862;BME280;62652;42.274;-71.436;2023-03-20T00:38:01;100980.0;;;-0.11111111111111072;unknown
64862;BME280;62652;42.274;-71.436;2023-03-20T00:39:00;100970.0;;;-0.2777777777777778;unknown
64862;BME280;62652;42.274;-71.436;2023-03-20T00:40:01;100990.0;;;-0.22222222222222143;unknown
64862;BME280;62652;42.274;-71.436;2023-03-20T00:41:01;100980.0;;;-0.22222222222222143;unknown
64862;BME280;62652;42.274;-71.436;2023-03-20T00:42:02;100980.0;;;-0.22222222222222143;unknown
64862;BME280;62652;42.274;-71.436;2023-03-20T00:43:02;100980.0;;;-0.2777777777777778;unknown
64862;BME280;62652;42.274;-71.436;2023-03-20T00:44:02;100990.0;;;-0.2777777777777778;unknown
64862;BME280;62652;42.274;-71.436;2023-03-20T00:45:01;100980.0;;;-0.3888888888888885;unknown
64862;BME280;62652;42.274;-71.436;2023-03-20T00:46:00;100980.0;;;-0.3888888888888885;unknown
64862;BME280;62652;42.274;-71.436;2023-03-20T00:47:03;100990.0;;;-0.2777777777777778;unknown
64862;BME280;62652;42.274;-71.436;2023-03-20T00:48:00;100990.0;;;-0.2777777777777778;unknown
64862;BME280;62652;42.274;-71.436;2023-03-20T00:49:01;100990.0;;;-0.3888888888888885;unknown
64862;BME280;62652;42.274;-71.436;2023-03-20T00:50:00;100990.0;;;-0.2777777777777778;unknown
64862;BME280;62652;42.274;-71.436;2023-03-20T00:51:00;100990.0;;;-0.2777777777777778;unknown
64862;BME280;62652;42.274;-71.436;2023-03-20T00:52:02;100990.0;;;-0.2777777777777778;unknown
64862;BME280;62652;42.274;-71.436;2023-03-20T00:53:01;100990.0;;;-0.3888888888888885;unknown
64862;BME280;62652;42.274;-71.436;2023-03-20T00:54:00;101000.0;;;-0.3888888888888885;unknown
64862;BME280;62652;42.274;-71.436;2023-03-20T00:55:00;101000.0;;;-0.3888888888888885;unknown
64862;BME280;62652;42.274;-71.436;2023-03-20T00:56:01;101010.0;;;-0.4999999999999992;unknown
64862;BME280;62652;42.274;-71.436;2023-03-20T00:57:03;101000.0;;;-0.3888888888888885;unknown
64862;BME280;62652;42.274;-71.436;2023-03-20T00:58:02;101000.0;;;-0.4999999999999992;unknown
64862;BME280;62652;42.274;-71.436;2023-03-20T00:59:02;101010.0;;;-0.3888888888888885;unknown
64862;BME280;62652;42.274;-71.436;2023-03-20T01:00:05;101000.0;;;-0.3888888888888885;unknown
64862;BME280;62652;42.274;-71.436;2023-03-20T01:01:00;101010.0;;;-0.3888888888888885;unknown
64862;BME280;62652;42.274;-71.436;2023-03-20T01:02:01;101020.0;;;-0.4999999999999992;unknown
64862;BME280;62652;42.274;-71.436;2023-03-20T01:03:08;101020.0;;;-0.3888888888888885;unknown
64862;BME280;62652;42.274;-71.436;2023-03-20T01:04:00;101020.0;;;-0.3888888888888885;unknown
64862;BME280;62652;42.274;-71.436;2023-03-20T01:05:01;101020.0;;;-0.3888888888888885;unknown
64862;BME280;62652;42.274;-71.436;2023-03-20T01:06:01;101020.0;;;-0.3888888888888885;unknown
64862;BME280;62652;42.274;-71.436;2023-03-20T01:07:01;101020.0;;;-0.4999999999999992;unknown
64862;BME280;62652;42.274;-71.436;2023-03-20T01:08:01;101020.0;;;-0.3888888888888885;unknown
64862;BME280;62652;42.274;-71.436;2023-03-20T01:09:00;101020.0;;;-0.3888888888888885;unknown
64862;BME280;62652;42.274;-71.436;2023-03-20T01:10:01;101020.0;;;-0.3888888888888885;unknown
64862;BME280;62652;42.274;-71.436;2023-03-20T01:11:01;101030.0;;;-0.3888888888888885;unknown
64862;BME280;62652;42.274;-71.436;2023-03-20T01:12:01;101030.0;;;-0.3888888888888885;unknown
64862;BME280;62652;42.274;-71.436;2023-03-20T01:13:01;101030.0;;;-0.2777777777777778;unknown
64862;BME280;62652;42.274;-71.436;2023-03-20T01:14:01;101030.0;;;-0.22222222222222143;unknown
64862;BME280;62652;42.274;-71.436;2023-03-20T01:15:01;101030.0;;;-0.11111111111111072;unknown
64862;BME280;62652;42.274;-71.436;2023-03-20T01:16:01;101030.0;;;-0.11111111111111072;unknown
64862;BME280;62652;42.274;-71.436;2023-03-20T01:17:01;101030.0;;;-0.11111111111111072;unknown
64862;BME280;62652;42.274;-71.436;2023-03-20T01:18:01;101030.0;;;0.0;unknown
64862;BME280;62652;42.274;-71.436;2023-03-20T01:19:00;101030.0;;;-0.11111111111111072;unknown
64862;BME280;62652;42.274;-71.436;2023-03-20T01:20:01;101040.0;;;0.0;unknown
64862;BME280;62652;42.274;-71.436;2023-03-20T01:21:01;101030.0;;;0.0;unknown
64862;BME280;62652;42.274;-71.436;2023-03-20T01:22:01;101040.0;;;0.11111111111111269;unknown
64862;BME280;62652;42.274;-71.436;2023-03-20T01:23:00;101030.0;;;0.11111111111111269;unknown
64862;BME280;62652;42.274;-71.436;2023-03-20T01:24:00;101040.0;;;0.11111111111111269;unknown
64862;BME280;62652;42.274;-71.436;2023-03-20T01:25:00;101040.0;;;0.11111111111111269;unknown
64862;BME280;62652;42.274;-71.436;2023-03-20T01:26:01;101040.0;;;0.11111111111111269;unknown
64862;BME280;62652;42.274;-71.436;2023-03-20T01:27:01;101030.0;;;0.0;unknown
64862;BME280;62652;42.274;-71.436;2023-03-20T01:28:01;101040.0;;;0.11111111111111269;unknown
64862;BME280;62652;42.274;-71.436;2023-03-20T01:29:01;101040.0;;;0.11111111111111269;unknown
64862;BME280;62652;42.274;-71.436;2023-03-20T01:30:00;101040.0;;;0.11111111111111269;unknown
64862;BME280;62652;42.274;-71.436;2023-03-20T01:31:00;101040.0;;;0.11111111111111269;unknown
64862;BME280;62652;42.274;-71.436;2023-03-20T01:32:00;101050.0;;;0.11111111111111269;unknown
64862;BME280;62652;42.274;-71.436;2023-03-20T01:33:05;101040.0;;;0.11111111111111269;unknown
64862;BME280;62652;42.274;-71.436;2023-03-20T01:34:02;101050.0;;;0.11111111111111269;unknown
64862;BME280;62652;42.274;-71.436;2023-03-20T01:35:00;101050.0;;;0.11111111111111269;unknown
64862;BME280;62652;42.274;-71.436;2023-03-20T01:36:00;101050.0;;;0.11111111111111269;unknown
64862;BME280;62652;42.274;-71.436;2023-03-20T01:37:00;101060.0;;;0.11111111111111269;unknown
64862;BME280;62652;42.274;-71.436;2023-03-20T01:38:01;101060.0;;;0.0;unknown
64862;BME280;62652;42.274;-71.436;2023-03-20T01:39:00;101060.0;;;0.11111111111111269;unknown
64862;BME280;62652;42.274;-71.436;2023-03-20T01:40:01;101060.0;;;0.11111111111111269;unknown
64862;BME280;62652;42.274;-71.436;2023-03-20T01:41:05;101060.0;;;0.11111111111111269;unknown
64862;BME280;62652;42.274;-71.436;2023-03-20T01:42:02;101060.0;;;0.11111111111111269;unknown
64862;BME280;62652;42.274;-71.436;2023-03-20T01:43:01;101070.0;;;0.0;unknown
64862;BME280;62652;42.274;-71.436;2023-03-20T01:44:15;101060.0;;;0.11111111111111269;unknown
64862;BME280;62652;42.274;-71.436;2023-03-20T01:45:00;101070.0;;;-0.11111111111111072;unknown
64862;BME280;62652;42.274;-71.436;2023-03-20T01:46:09;101080.0;;;0.0;unknown
64862;BME280;62652;42.274;-71.436;2023-03-20T01:47:02;101080.0;;;0.0;unknown
64862;BME280;62652;42.274;-71.436;2023-03-20T01:48:11;101080.0;;;0.11111111111111269;unknown
64862;BME280;62652;42.274;-71.436;2023-03-20T01:49:07;101080.0;;;0.11111111111111269;unknown
64862;BME280;62652;42.274;-71.436;2023-03-20T01:50:20;101090.0;;;0.0;unknown
64862;BME280;62652;42.274;-71.436;2023-03-20T01:51:00;101080.0;;;0.0;unknown
64862;BME280;62652;42.274;-71.436;2023-03-20T01:52:00;101090.0;;;0.0;unknown
64862;BME280;62652;42.274;-71.436;2023-03-20T01:53:05;101090.0;;;0.11111111111111269;unknown
64862;BME280;62652;42.274;-71.436;2023-03-20T01:54:05;101090.0;;;0.11111111111111269;unknown
64862;BME280;62652;42.274;-71.436;2023-03-20T01:55:01;101100.0;;;0.11111111111111269;unknown
64862;BME280;62652;42.274;-71.436;2023-03-20T01:56:01;101100.0;;;0.22222222222222143;unknown
64862;BME280;62652;42.274;-71.436;2023-03-20T01:57:04;101090.0;;;0.11111111111111269;unknown
64862;BME280;62652;42.274;-71.436;2023-03-20T01:58:04;101100.0;;;0.11111111111111269;unknown
64862;BME280;62652;42.274;-71.436;2023-03-20T01:59:04;101100.0;;;0.11111111111111269;unknown
64862;BME280;62652;42.274;-71.436;2023-03-20T02:00:03;101100.0;;;0.11111111111111269;unknown
64862;BME280;62652;42.274;-71.436;2023-03-20T02:01:01;101100.0;;;0.22222222222222143;unknown
64862;BME280;62652;42.274;-71.436;2023-03-20T02:02:01;101100.0;;;0.22222222222222143;unknown
64862;BME280;62652;42.274;-71.436;2023-03-20T02:03:02;101110.0;;;0.22222222222222143;unknown
64862;BME280;62652;42.274;-71.436;2023-03-20T02:04:01;101110.0;;;0.22222222222222143;unknown
64862;BME280;62652;42.274;-71.436;2023-03-20T02:05:03;101110.0;;;0.22222222222222143;unknown
64862;BME280;62652;42.274;-71.436;2023-03-20T02:06:01;101120.0;;;0.22222222222222143;unknown
64862;BME280;62652;42.274;-71.436;2023-03-20T02:07:02;101120.0;;;0.22222222222222143;unknown
64862;BME280;62652;42.274;-71.436;2023-03-20T02:08:12;101110.0;;;0.22222222222222143;unknown
64862;BME280;62652;42.274;-71.436;2023-03-20T02:09:01;101120.0;;;0.22222222222222143;unknown
64862;BME280;62652;42.274;-71.436;2023-03-20T02:10:01;101120.0;;;0.22222222222222143;unknown
64862;BME280;62652;42.274;-71.436;2023-03-20T02:11:01;101130.0;;;0.22222222222222143;unknown
64862;BME280;62652;42.274;-71.436;2023-03-20T02:12:01;101120.0;;;0.11111111111111269;unknown
64862;BME280;62652;42.274;-71.436;2023-03-20T02:13:02;101120.0;;;0.0;unknown
64862;BME280;62652;42.274;-71.436;2023-03-20T02:14:01;101130.0;;;0.0;unknown
64862;BME280;62652;42.274;-71.436;2023-03-20T02:15:01;101130.0;;;-0.11111111111111072;unknown
64862;BME280;62652;42.274;-71.436;2023-03-20T02:16:04;101120.0;;;-0.22222222222222143;unknown
64862;BME280;62652;42.274;-71.436;2023-03-20T02:17:02;101120.0;;;-0.22222222222222143;unknown
64862;BME280;62652;42.274;-71.436;2023-03-20T02:18:01;101120.0;;;-0.2777777777777778;unknown
64862;BME280;62652;42.274;-71.436;2023-03-20T02:19:01;101120.0;;;-0.2777777777777778;unknown
64862;BME280;62652;42.274;-71.436;2023-03-20T02:20:08;101120.0;;;-0.2777777777777778;unknown
64862;BME280;62652;42.274;-71.436;2023-03-20T02:21:18;101120.0;;;-0.2777777777777778;unknown
64862;BME280;62652;42.274;-71.436;2023-03-20T02:22:17;101130.0;;;-0.2777777777777778;unknown
64862;BME280;62652;42.274;-71.436;2023-03-20T02:23:16;101120.0;;;-0.2777777777777778;unknown
64862;BME280;62652;42.274;-71.436;2023-03-20T02:24:21;101130.0;;;-0.2777777777777778;unknown
64862;BME280;62652;42.274;-71.436;2023-03-20T02:25:15;101130.0;;;-0.2777777777777778;unknown
64862;BME280;62652;42.274;-71.436;2023-03-20T02:26:15;101130.0;;;-0.2777777777777778;unknown
64862;BME280;62652;42.274;-71.436;2023-03-20T02:27:08;101130.0;;;-0.2777777777777778;unknown
64862;BME280;62652;42.274;-71.436;2023-03-20T02:28:18;101130.0;;;-0.3888888888888885;unknown
64862;BME280;62652;42.274;-71.436;2023-03-20T02:29:16;101130.0;;;-0.3888888888888885;unknown
64862;BME280;62652;42.274;-71.436;2023-03-20T02:30:15;101130.0;;;-0.3888888888888885;unknown
64862;BME280;62652;42.274;-71.436;2023-03-20T02:31:16;101140.0;;;-0.3888888888888885;unknown
64862;BME280;62652;42.274;-71.436;2023-03-20T02:34:18;101140.0;;;-0.3888888888888885;unknown
64862;BME280;62652;42.274;-71.436;2023-03-20T02:36:14;101150.0;;;-0.3888888888888885;unknown
64862;BME280;62652;42.274;-71.436;2023-03-20T02:38:13;101150.0;;;-0.3888888888888885;unknown
64862;BME280;62652;42.274;-71.436;2023-03-20T02:39:12;101150.0;;;-0.3888888888888885;unknown
64862;BME280;62652;42.274;-71.436;2023-03-20T02:40:09;101140.0;;;-0.3888888888888885;unknown
64862;BME280;62652;42.274;-71.436;2023-03-20T02:41:07;101150.0;;;-0.4999999999999992;unknown
64862;BME280;62652;42.274;-71.436;2023-03-20T02:42:07;101160.0;;;-0.3888888888888885;unknown
64862;BME280;62652;42.274;-71.436;2023-03-20T02:43:08;101160.0;;;-0.3888888888888885;unknown
64862;BME280;62652;42.274;-71.436;2023-03-20T02:44:05;101160.0;;;-0.3888888888888885;unknown
64862;BME280;62652;42.274;-71.436;2023-03-20T02:45:11;101150.0;;;-0.3888888888888885;unknown
64862;BME280;62652;42.274;-71.436;2023-03-20T02:46:07;101160.0;;;-0.3888888888888885;unknown
64862;BME280;62652;42.274;-71.436;2023-03-20T02:47:04;101160.0;;;-0.3888888888888885;unknown
64862;BME280;62652;42.274;-71.436;2023-03-20T02:48:08;101160.0;;;-0.3888888888888885;unknown
64862;BME280;62652;42.274;-71.436;2023-03-20T02:49:08;101160.0;;;-0.3888888888888885;unknown
64862;BME280;62652;42.274;-71.436;2023-03-20T02:50:11;101170.0;;;-0.3888888888888885;unknown
64862;BME280;62652;42.274;-71.436;2023-03-20T02:51:07;101180.0;;;-0.3888888888888885;unknown
64862;BME280;62652;42.274;-71.436;2023-03-20T02:52:06;101170.0;;;-0.3888888888888885;unknown
64862;BME280;62652;42.274;-71.436;2023-03-20T02:53:12;101170.0;;;-0.3888888888888885;unknown
64862;BME280;62652;42.274;-71.436;2023-03-20T02:54:06;101180.0;;;-0.3888888888888885;unknown
64862;BME280;62652;42.274;-71.436;2023-03-20T02:55:06;101170.0;;;-0.3888888888888885;unknown
64862;BME280;62652;42.274;-71.436;2023-03-20T02:56:10;101180.0;;;-0.3888888888888885;unknown
64862;BME280;62652;42.274;-71.436;2023-03-20T02:57:03;101180.0;;;-0.3888888888888885;unknown
64862;BME280;62652;42.274;-71.436;2023-03-20T02:58:08;101180.0;;;-0.2777777777777778;unknown
64862;BME280;62652;42.274;-71.436;2023-03-20T02:59:09;101190.0;;;-0.2777777777777778;unknown
64862;BME280;62652;42.274;-71.436;2023-03-20T03:00:05;101190.0;;;-0.3888888888888885;unknown
64862;BME280;62652;42.274;-71.436;2023-03-20T03:02:04;101190.0;;;-0.3888888888888885;unknown
64862;BME280;62652;42.274;-71.436;2023-03-20T03:03:05;101190.0;;;-0.3888888888888885;unknown
64862;BME280;62652;42.274;-71.436;2023-03-20T03:04:04;101180.0;;;-0.3888888888888885;unknown
64862;BME280;62652;42.274;-71.436;2023-03-20T03:05:07;101190.0;;;-0.3888888888888885;unknown
64862;BME280;62652;42.274;-71.436;2023-03-20T03:06:06;101190.0;;;-0.2777777777777778;unknown
64862;BME280;62652;42.274;-71.436;2023-03-20T03:07:02;101190.0;;;-0.2777777777777778;unknown
64862;BME280;62652;42.274;-71.436;2023-03-20T03:08:02;101190.0;;;-0.2777777777777778;unknown
64862;BME280;62652;42.274;-71.436;2023-03-20T03:09:05;101200.0;;;-0.2777777777777778;unknown
64862;BME280;62652;42.274;-71.436;2023-03-20T03:10:04;101190.0;;;-0.3888888888888885;unknown
64862;BME280;62652;42.274;-71.436;2023-03-20T03:11:05;101200.0;;;-0.3888888888888885;unknown
64862;BME280;62652;42.274;-71.436;2023-03-20T03:12:04;101200.0;;;-0.3888888888888885;unknown
64862;BME280;62652;42.274;-71.436;2023-03-20T03:13:02;101200.0;;;-0.3888888888888885;unknown
64862;BME280;62652;42.274;-71.436;2023-03-20T03:14:01;101210.0;;;-0.2777777777777778;unknown
64862;BME280;62652;42.274;-71.436;2023-03-20T03:15:03;101210.0;;;-0.3888888888888885;unknown
64862;BME280;62652;42.274;-71.436;2023-03-20T03:16:06;101210.0;;;-0.3888888888888885;unknown
64862;BME280;62652;42.274;-71.436;2023-03-20T03:17:02;101210.0;;;-0.3888888888888885;unknown
64862;BME280;62652;42.274;-71.436;2023-03-20T03:18:02;101220.0;;;-0.2777777777777778;unknown
64862;BME280;62652;42.274;-71.436;2023-03-20T03:19:06;101220.0;;;-0.2777777777777778;unknown
64862;BME280;62652;42.274;-71.436;2023-03-20T03:20:03;101220.0;;;-0.2777777777777778;unknown
64862;BME280;62652;42.274;-71.436;2023-03-20T03:21:02;101220.0;;;-0.2777777777777778;unknown
64862;BME280;62652;42.274;-71.436;2023-03-20T03:22:00;101230.0;;;-0.2777777777777778;unknown
64862;BME280;62652;42.274;-71.436;2023-03-20T03:23:01;101230.0;;;-0.2777777777777778;unknown
64862;BME280;62652;42.274;-71.436;2023-03-20T03:24:01;101230.0;;;-0.2777777777777778;unknown
64862;BME280;62652;42.274;-71.436;2023-03-20T03:25:01;101220.0;;;-0.3888888888888885;unknown
64862;BME280;62652;42.274;-71.436;2023-03-20T03:26:03;101230.0;;;-0.3888888888888885;unknown
64862;BME280;62652;42.274;-71.436;2023-03-20T03:27:03;101230.0;;;-0.2777777777777778;unknown
64862;BME280;62652;42.274;-71.436;2023-03-20T03:28:04;101230.0;;;-0.2777777777777778;unknown
64862;BME280;62652;42.274;-71.436;2023-03-20T03:29:05;101220.0;;;-0.2777777777777778;unknown
64862;BME280;62652;42.274;-71.436;2023-03-20T03:30:03;101230.0;;;-0.2777777777777778;unknown
64862;BME280;62652;42.274;-71.436;2023-03-20T03:31:01;101230.0;;;-0.3888888888888885;unknown
64862;BME280;62652;42.274;-71.436;2023-03-20T03:32:02;101230.0;;;-0.3888888888888885;unknown
64862;BME280;62652;42.274;-71.436;2023-03-20T03:33:11;101230.0;;;-0.2777777777777778;unknown
64862;BME280;62652;42.274;-71.436;2023-03-20T03:34:00;101220.0;;;-0.3888888888888885;unknown
64862;BME280;62652;42.274;-71.436;2023-03-20T03:35:03;101230.0;;;-0.3888888888888885;unknown
64862;BME280;62652;42.274;-71.436;2023-03-20T03:36:08;101230.0;;;-0.2777777777777778;unknown
64862;BME280;62652;42.274;-71.436;2023-03-20T03:37:05;101230.0;;;-0.3888888888888885;unknown
64862;BME280;62652;42.274;-71.436;2023-03-20T03:38:03;101230.0;;;-0.3888888888888885;unknown
64862;BME280;62652;42.274;-71.436;2023-03-20T03:39:06;101230.0;;;-0.3888888888888885;unknown
64862;BME280;62652;42.274;-71.436;2023-03-20T03:40:06;101230.0;;;-0.2777777777777778;unknown
64862;BME280;62652;42.274;-71.436;2023-03-20T03:41:08;101230.0;;;-0.2777777777777778;unknown
64862;BME280;62652;42.274;-71.436;2023-03-20T03:42:05;101240.0;;;-0.2777777777777778;unknown
64862;BME280;62652;42.274;-71.436;2023-03-20T03:43:05;101240.0;;;-0.2777777777777778;unknown
64862;BME280;62652;42.274;-71.436;2023-03-20T03:44:06;101240.0;;;-0.3888888888888885;unknown
64862;BME280;62652;42.274;-71.436;2023-03-20T03:45:03;101240.0;;;-0.2777777777777778;unknown
64862;BME280;62652;42.274;-71.436;2023-03-20T03:46:05;101240.0;;;-0.2777777777777778;unknown
64862;BME280;62652;42.274;-71.436;2023-03-20T03:47:04;101250.0;;;-0.2777777777777778;unknown
64862;BME280;62652;42.274;-71.436;2023-03-20T03:48:04;101240.0;;;-0.2777777777777778;unknown
64862;BME280;62652;42.274;-71.436;2023-03-20T03:49:01;101240.0;;;-0.2777777777777778;unknown
64862;BME280;62652;42.274;-71.436;2023-03-20T03:50:04;101250.0;;;-0.2777777777777778;unknown
64862;BME280;62652;42.274;-71.436;2023-03-20T03:51:03;101250.0;;;-0.2777777777777778;unknown
64862;BME280;62652;42.274;-71.436;2023-03-20T03:52:04;101250.0;;;-0.2777777777777778;unknown
64862;BME280;62652;42.274;-71.436;2023-03-20T03:53:05;101250.0;;;-0.2777777777777778;unknown
64862;BME280;62652;42.274;-71.436;2023-03-20T03:54:04;101250.0;;;-0.22222222222222143;unknown
64862;BME280;62652;42.274;-71.436;2023-03-20T03:55:03;101250.0;;;-0.11111111111111072;unknown
64862;BME280;62652;42.274;-71.436;2023-03-20T03:56:03;101250.0;;;-0.11111111111111072;unknown
64862;BME280;62652;42.274;-71.436;2023-03-20T03:57:01;101260.0;;;0.0;unknown
64862;BME280;62652;42.274;-71.436;2023-03-20T03:58:03;101250.0;;;0.11111111111111269;unknown
64862;BME280;62652;42.274;-71.436;2023-03-20T03:59:03;101250.0;;;0.11111111111111269;unknown
64862;BME280;62652;42.274;-71.436;2023-03-20T04:00:02;101250.0;;;0.11111111111111269;unknown
64862;BME280;62652;42.274;-71.436;2023-03-20T04:01:03;101250.0;;;0.11111111111111269;unknown
64862;BME280;62652;42.274;-71.436;2023-03-20T04:02:01;101260.0;;;0.22222222222222143;unknown
64862;BME280;62652;42.274;-71.436;2023-03-20T04:03:01;101260.0;;;0.11111111111111269;unknown
64862;BME280;62652;42.274;-71.436;2023-03-20T04:04:03;101250.0;;;0.22222222222222143;unknown
64862;BME280;62652;42.274;-71.436;2023-03-20T04:05:02;101250.0;;;0.22222222222222143;unknown
64862;BME280;62652;42.274;-71.436;2023-03-20T04:06:02;101260.0;;;0.22222222222222143;unknown
64862;BME280;62652;42.274;-71.436;2023-03-20T04:07:01;101260.0;;;0.22222222222222143;unknown
64862;BME280;62652;42.274;-71.436;2023-03-20T04:08:02;101260.0;;;0.11111111111111269;unknown
64862;BME280;62652;42.274;-71.436;2023-03-20T04:09:00;101270.0;;;0.22222222222222143;unknown
64862;BME280;62652;42.274;-71.436;2023-03-20T04:10:00;101270.0;;;0.22222222222222143;unknown
64862;BME280;62652;42.274;-71.436;2023-03-20T04:11:00;101270.0;;;0.22222222222222143;unknown
64862;BME280;62652;42.274;-71.436;2023-03-20T04:12:00;101270.0;;;0.2777777777777778;unknown
64862;BME280;62652;42.274;-71.436;2023-03-20T04:13:00;101270.0;;;0.2777777777777778;unknown
64862;BME280;62652;42.274;-71.436;2023-03-20T04:14:00;101270.0;;;0.22222222222222143;unknown
64862;BME280;62652;42.274;-71.436;2023-03-20T04:15:01;101270.0;;;0.22222222222222143;unknown
64862;BME280;62652;42.274;-71.436;2023-03-20T04:16:01;101270.0;;;0.11111111111111269;unknown
64862;BME280;62652;42.274;-71.436;2023-03-20T04:17:00;101270.0;;;0.11111111111111269;unknown
64862;BME280;62652;42.274;-71.436;2023-03-20T04:18:01;101270.0;;;0.0;unknown
64862;BME280;62652;42.274;-71.436;2023-03-20T04:19:00;101270.0;;;0.0;unknown
64862;BME280;62652;42.274;-71.436;2023-03-20T04:20:01;101280.0;;;-0.11111111111111072;unknown
64862;BME280;62652;42.274;-71.436;2023-03-20T04:21:00;101280.0;;;-0.11111111111111072;unknown
64862;BME280;62652;42.274;-71.436;2023-03-20T04:22:00;101280.0;;;-0.22222222222222143;unknown
64862;BME280;62652;42.274;-71.436;2023-03-20T04:23:00;101270.0;;;-0.22222222222222143;unknown
64862;BME280;62652;42.274;-71.436;2023-03-20T04:24:00;101280.0;;;-0.22222222222222143;unknown
64862;BME280;62652;42.274;-71.436;2023-03-20T04:25:01;101280.0;;;-0.22222222222222143;unknown